sensor_id;sensor_type;location;lat;lon;timestamp;P1;durP1;ratioP1;P2;durP2;ratioP2
14778;SDS011;7481;53.750;10.570;2022-09-21T00:01:49;2.63;;;1.80;;
14778;SDS011;7481;53.750;10.570;2022-09-21T00:04:37;1.40;;;1.30;;
14778;SDS011;7481;53.750;10.570;2022-09-21T00:07:23;2.90;;;1.70;;
14778;SDS011;7481;53.750;10.570;2022-09-21T00:10:11;2.43;;;1.53;;
14778;SDS011;7481;53.750;10.570;2022-09-21T00:12:58;2.33;;;1.50;;
14778;SDS011;7481;53.750;10.570;2022-09-21T00:15:46;3.03;;;1.60;;
14778;SDS011;7481;53.750;10.570;2022-09-21T00:18:33;3.83;;;1.80;;
14778;SDS011;7481;53.750;10.570;2022-09-21T00:21:21;1.90;;;1.33;;
14778;SDS011;7481;53.750;10.570;2022-09-21T00:24:08;2.90;;;1.40;;
14778;SDS011;7481;53.750;10.570;2022-09-21T00:26:55;4.33;;;2.03;;
14778;SDS011;7481;53.750;10.570;2022-09-21T00:29:42;1.40;;;1.30;;
14778;SDS011;7481;53.750;10.570;2022-09-21T00:32:30;1.93;;;1.40;;
14778;SDS011;7481;53.750;10.570;2022-09-21T00:35:18;3.57;;;1.60;;
14778;SDS011;7481;53.750;10.570;2022-09-21T00:38:05;4.73;;;1.87;;
14778;SDS011;7481;53.750;10.570;2022-09-21T00:40:52;2.03;;;1.60;;
14778;SDS011;7481;53.750;10.570;2022-09-21T00:43:42;2.83;;;1.57;;
14778;SDS011;7481;53.750;10.570;2022-09-21T00:46:32;4.00;;;1.40;;
14778;SDS011;7481;53.750;10.570;2022-09-21T00:49:21;4.57;;;1.70;;
14778;SDS011;7481;53.750;10.570;2022-09-21T00:52:10;1.43;;;1.33;;
14778;SDS011;7481;53.750;10.570;2022-09-21T00:55:04;3.13;;;1.43;;
14778;SDS011;7481;53.750;10.570;2022-09-21T00:58:13;2.80;;;1.60;;
14778;SDS011;7481;53.750;10.570;2022-09-21T01:01:06;3.67;;;1.70;;
14778;SDS011;7481;53.750;10.570;2022-09-21T01:03:53;1.97;;;1.70;;
14778;SDS011;7481;53.750;10.570;2022-09-21T01:06:42;2.47;;;1.40;;
14778;SDS011;7481;53.750;10.570;2022-09-21T01:09:29;2.53;;;1.47;;
14778;SDS011;7481;53.750;10.570;2022-09-21T01:12:36;2.17;;;1.53;;
14778;SDS011;7481;53.750;10.570;2022-09-21T01:15:34;2.33;;;1.40;;
14778;SDS011;7481;53.750;10.570;2022-09-21T01:21:26;3.23;;;1.70;;
14778;SDS011;7481;53.750;10.570;2022-09-21T01:27:42;3.00;;;1.70;;
14778;SDS011;7481;53.750;10.570;2022-09-21T01:30:38;2.43;;;1.67;;
14778;SDS011;7481;53.750;10.570;2022-09-21T01:33:35;5.33;;;1.80;;
14778;SDS011;7481;53.750;10.570;2022-09-21T01:36:30;4.60;;;1.60;;
14778;SDS011;7481;53.750;10.570;2022-09-21T01:39:18;2.07;;;1.50;;
14778;SDS011;7481;53.750;10.570;2022-09-21T01:42:08;2.53;;;1.57;;
14778;SDS011;7481;53.750;10.570;2022-09-21T01:44:59;3.00;;;1.40;;
14778;SDS011;7481;53.750;10.570;2022-09-21T01:47:49;9.17;;;1.83;;
14778;SDS011;7481;53.750;10.570;2022-09-21T01:50:40;2.30;;;1.47;;
14778;SDS011;7481;53.750;10.570;2022-09-21T01:54:36;2.60;;;1.40;;
14778;SDS011;7481;53.750;10.570;2022-09-21T01:56:54;2.67;;;1.60;;
14778;SDS011;7481;53.750;10.570;2022-09-21T01:59:56;2.50;;;1.70;;
14778;SDS011;7481;53.750;10.570;2022-09-21T02:02:47;4.07;;;1.50;;
14778;SDS011;7481;53.750;10.570;2022-09-21T02:05:41;2.00;;;1.50;;
14778;SDS011;7481;53.750;10.570;2022-09-21T02:08:31;5.43;;;2.03;;
14778;SDS011;7481;53.750;10.570;2022-09-21T02:11:19;2.83;;;1.60;;
14778;SDS011;7481;53.750;10.570;2022-09-21T02:14:06;2.23;;;1.67;;
14778;SDS011;7481;53.750;10.570;2022-09-21T02:20:27;5.57;;;2.10;;
14778;SDS011;7481;53.750;10.570;2022-09-21T02:23:19;2.73;;;1.60;;
14778;SDS011;7481;53.750;10.570;2022-09-21T02:26:18;2.70;;;1.57;;
14778;SDS011;7481;53.750;10.570;2022-09-21T02:29:24;3.47;;;1.87;;
14778;SDS011;7481;53.750;10.570;2022-09-21T02:32:32;2.70;;;1.87;;
14778;SDS011;7481;53.750;10.570;2022-09-21T02:35:27;2.37;;;1.70;;
14778;SDS011;7481;53.750;10.570;2022-09-21T02:38:43;2.47;;;1.80;;
14778;SDS011;7481;53.750;10.570;2022-09-21T02:41:59;2.33;;;2.03;;
14778;SDS011;7481;53.750;10.570;2022-09-21T02:48:52;1.30;;;1.20;;
14778;SDS011;7481;53.750;10.570;2022-09-21T02:51:30;2.80;;;1.87;;
14778;SDS011;7481;53.750;10.570;2022-09-21T02:54:24;3.57;;;1.50;;
14778;SDS011;7481;53.750;10.570;2022-09-21T02:57:17;3.23;;;1.70;;
14778;SDS011;7481;53.750;10.570;2022-09-21T03:00:06;3.03;;;1.97;;
14778;SDS011;7481;53.750;10.570;2022-09-21T03:02:54;2.87;;;1.60;;
14778;SDS011;7481;53.750;10.570;2022-09-21T03:05:41;2.83;;;2.07;;
14778;SDS011;7481;53.750;10.570;2022-09-21T03:08:30;3.30;;;1.93;;
14778;SDS011;7481;53.750;10.570;2022-09-21T03:11:17;2.23;;;1.80;;
14778;SDS011;7481;53.750;10.570;2022-09-21T03:14:05;5.07;;;1.80;;
14778;SDS011;7481;53.750;10.570;2022-09-21T03:16:54;3.03;;;1.70;;
14778;SDS011;7481;53.750;10.570;2022-09-21T03:19:41;3.00;;;1.83;;
14778;SDS011;7481;53.750;10.570;2022-09-21T03:22:28;3.17;;;1.80;;
14778;SDS011;7481;53.750;10.570;2022-09-21T03:25:15;1.63;;;1.37;;
14778;SDS011;7481;53.750;10.570;2022-09-21T03:28:02;3.20;;;1.80;;
14778;SDS011;7481;53.750;10.570;2022-09-21T03:30:49;2.13;;;1.50;;
14778;SDS011;7481;53.750;10.570;2022-09-21T03:33:37;3.08;;;1.98;;
14778;SDS011;7481;53.750;10.570;2022-09-21T03:36:24;2.43;;;1.80;;
14778;SDS011;7481;53.750;10.570;2022-09-21T03:39:11;1.77;;;1.57;;
14778;SDS011;7481;53.750;10.570;2022-09-21T03:41:58;6.53;;;1.93;;
14778;SDS011;7481;53.750;10.570;2022-09-21T03:44:45;5.97;;;1.67;;
14778;SDS011;7481;53.750;10.570;2022-09-21T03:47:32;3.10;;;1.97;;
14778;SDS011;7481;53.750;10.570;2022-09-21T03:50:19;2.23;;;1.90;;
14778;SDS011;7481;53.750;10.570;2022-09-21T03:53:06;3.20;;;1.77;;
14778;SDS011;7481;53.750;10.570;2022-09-21T03:55:56;3.27;;;1.73;;
14778;SDS011;7481;53.750;10.570;2022-09-21T03:58:43;5.20;;;1.90;;
14778;SDS011;7481;53.750;10.570;2022-09-21T04:01:30;4.63;;;2.00;;
14778;SDS011;7481;53.750;10.570;2022-09-21T04:04:17;4.03;;;2.20;;
14778;SDS011;7481;53.750;10.570;2022-09-21T04:07:04;4.13;;;1.90;;
14778;SDS011;7481;53.750;10.570;2022-09-21T04:09:50;3.03;;;2.00;;
14778;SDS011;7481;53.750;10.570;2022-09-21T04:12:39;2.23;;;1.83;;
14778;SDS011;7481;53.750;10.570;2022-09-21T04:15:29;2.60;;;1.83;;
14778;SDS011;7481;53.750;10.570;2022-09-21T04:18:16;4.27;;;2.10;;
14778;SDS011;7481;53.750;10.570;2022-09-21T04:21:04;2.00;;;1.80;;
14778;SDS011;7481;53.750;10.570;2022-09-21T04:23:51;4.20;;;2.00;;
14778;SDS011;7481;53.750;10.570;2022-09-21T04:26:38;3.00;;;2.33;;
14778;SDS011;7481;53.750;10.570;2022-09-21T04:29:26;2.87;;;1.97;;
14778;SDS011;7481;53.750;10.570;2022-09-21T04:32:13;2.93;;;2.20;;
14778;SDS011;7481;53.750;10.570;2022-09-21T04:35:00;4.17;;;2.20;;
14778;SDS011;7481;53.750;10.570;2022-09-21T04:37:47;3.20;;;1.90;;
14778;SDS011;7481;53.750;10.570;2022-09-21T04:40:34;4.43;;;2.13;;
14778;SDS011;7481;53.750;10.570;2022-09-21T04:43:20;4.57;;;3.00;;
14778;SDS011;7481;53.750;10.570;2022-09-21T04:46:09;7.27;;;4.70;;
14778;SDS011;7481;53.750;10.570;2022-09-21T04:48:58;12.43;;;6.40;;
14778;SDS011;7481;53.750;10.570;2022-09-21T04:51:45;11.57;;;6.17;;
14778;SDS011;7481;53.750;10.570;2022-09-21T04:54:32;9.07;;;5.27;;
14778;SDS011;7481;53.750;10.570;2022-09-21T04:57:19;5.83;;;3.80;;
14778;SDS011;7481;53.750;10.570;2022-09-21T05:00:06;7.30;;;4.10;;
14778;SDS011;7481;53.750;10.570;2022-09-21T05:02:53;6.70;;;3.00;;
14778;SDS011;7481;53.750;10.570;2022-09-21T05:05:44;3.13;;;2.40;;
14778;SDS011;7481;53.750;10.570;2022-09-21T05:08:37;3.83;;;2.50;;
14778;SDS011;7481;53.750;10.570;2022-09-21T05:11:43;5.73;;;2.23;;
14778;SDS011;7481;53.750;10.570;2022-09-21T05:14:30;4.10;;;1.87;;
14778;SDS011;7481;53.750;10.570;2022-09-21T05:17:17;4.03;;;2.50;;
14778;SDS011;7481;53.750;10.570;2022-09-21T05:20:08;6.47;;;2.10;;
14778;SDS011;7481;53.750;10.570;2022-09-21T05:22:58;4.93;;;2.40;;
14778;SDS011;7481;53.750;10.570;2022-09-21T05:25:47;3.80;;;2.20;;
14778;SDS011;7481;53.750;10.570;2022-09-21T05:28:34;5.97;;;2.60;;
14778;SDS011;7481;53.750;10.570;2022-09-21T05:31:34;4.07;;;2.20;;
14778;SDS011;7481;53.750;10.570;2022-09-21T05:37:49;2.30;;;1.97;;
14778;SDS011;7481;53.750;10.570;2022-09-21T05:40:44;8.83;;;2.63;;
14778;SDS011;7481;53.750;10.570;2022-09-21T05:43:35;2.90;;;2.07;;
14778;SDS011;7481;53.750;10.570;2022-09-21T05:52:44;4.03;;;2.00;;
14778;SDS011;7481;53.750;10.570;2022-09-21T05:55:54;4.27;;;2.00;;
14778;SDS011;7481;53.750;10.570;2022-09-21T06:02:04;4.37;;;2.20;;
14778;SDS011;7481;53.750;10.570;2022-09-21T06:05:12;4.60;;;1.80;;
14778;SDS011;7481;53.750;10.570;2022-09-21T06:08:00;2.10;;;1.90;;
14778;SDS011;7481;53.750;10.570;2022-09-21T06:10:47;5.77;;;2.13;;
14778;SDS011;7481;53.750;10.570;2022-09-21T06:13:34;2.70;;;2.00;;
14778;SDS011;7481;53.750;10.570;2022-09-21T06:16:22;4.17;;;2.10;;
14778;SDS011;7481;53.750;10.570;2022-09-21T06:19:10;4.40;;;1.90;;
14778;SDS011;7481;53.750;10.570;2022-09-21T06:21:57;3.40;;;1.90;;
14778;SDS011;7481;53.750;10.570;2022-09-21T06:24:44;3.57;;;1.77;;
14778;SDS011;7481;53.750;10.570;2022-09-21T06:27:31;5.13;;;1.80;;
14778;SDS011;7481;53.750;10.570;2022-09-21T06:30:18;4.47;;;1.80;;
14778;SDS011;7481;53.750;10.570;2022-09-21T06:33:05;3.70;;;1.87;;
14778;SDS011;7481;53.750;10.570;2022-09-21T06:35:53;4.37;;;2.20;;
14778;SDS011;7481;53.750;10.570;2022-09-21T06:38:41;2.20;;;2.00;;
14778;SDS011;7481;53.750;10.570;2022-09-21T06:41:28;4.73;;;2.17;;
14778;SDS011;7481;53.750;10.570;2022-09-21T06:44:15;4.00;;;2.30;;
14778;SDS011;7481;53.750;10.570;2022-09-21T06:47:02;5.00;;;2.23;;
14778;SDS011;7481;53.750;10.570;2022-09-21T06:49:49;6.67;;;2.57;;
14778;SDS011;7481;53.750;10.570;2022-09-21T06:52:36;5.23;;;2.80;;
14778;SDS011;7481;53.750;10.570;2022-09-21T06:55:24;4.23;;;2.27;;
14778;SDS011;7481;53.750;10.570;2022-09-21T06:58:11;4.87;;;2.60;;
14778;SDS011;7481;53.750;10.570;2022-09-21T07:00:58;6.00;;;2.70;;
14778;SDS011;7481;53.750;10.570;2022-09-21T07:03:53;3.53;;;2.50;;
14778;SDS011;7481;53.750;10.570;2022-09-21T07:06:40;5.23;;;2.40;;
14778;SDS011;7481;53.750;10.570;2022-09-21T07:09:27;2.73;;;2.43;;
14778;SDS011;7481;53.750;10.570;2022-09-21T07:12:34;4.37;;;2.13;;
14778;SDS011;7481;53.750;10.570;2022-09-21T07:15:21;4.57;;;2.70;;
14778;SDS011;7481;53.750;10.570;2022-09-21T07:18:12;4.27;;;2.37;;
14778;SDS011;7481;53.750;10.570;2022-09-21T07:21:03;4.00;;;2.55;;
14778;SDS011;7481;53.750;10.570;2022-09-21T07:23:52;3.50;;;2.37;;
14778;SDS011;7481;53.750;10.570;2022-09-21T07:26:39;2.43;;;2.00;;
14778;SDS011;7481;53.750;10.570;2022-09-21T07:29:26;4.37;;;2.10;;
14778;SDS011;7481;53.750;10.570;2022-09-21T07:32:13;2.93;;;2.30;;
14778;SDS011;7481;53.750;10.570;2022-09-21T07:35:00;4.87;;;2.70;;
14778;SDS011;7481;53.750;10.570;2022-09-21T07:37:47;3.63;;;2.73;;
14778;SDS011;7481;53.750;10.570;2022-09-21T07:40:34;3.73;;;2.20;;
14778;SDS011;7481;53.750;10.570;2022-09-21T07:43:21;4.13;;;2.40;;
14778;SDS011;7481;53.750;10.570;2022-09-21T07:46:09;5.10;;;2.63;;
14778;SDS011;7481;53.750;10.570;2022-09-21T07:48:57;3.97;;;2.57;;
14778;SDS011;7481;53.750;10.570;2022-09-21T07:51:45;3.40;;;2.37;;
14778;SDS011;7481;53.750;10.570;2022-09-21T07:54:32;3.40;;;2.60;;
14778;SDS011;7481;53.750;10.570;2022-09-21T07:57:19;5.53;;;2.37;;
14778;SDS011;7481;53.750;10.570;2022-09-21T08:00:25;3.47;;;2.00;;
14778;SDS011;7481;53.750;10.570;2022-09-21T08:03:14;3.78;;;2.28;;
14778;SDS011;7481;53.750;10.570;2022-09-21T08:06:01;4.53;;;2.10;;
14778;SDS011;7481;53.750;10.570;2022-09-21T08:08:49;2.95;;;2.13;;
14778;SDS011;7481;53.750;10.570;2022-09-21T08:11:42;3.25;;;2.10;;
14778;SDS011;7481;53.750;10.570;2022-09-21T08:14:31;3.30;;;2.15;;
14778;SDS011;7481;53.750;10.570;2022-09-21T08:17:19;2.00;;;1.80;;
14778;SDS011;7481;53.750;10.570;2022-09-21T08:20:07;2.95;;;1.88;;
14778;SDS011;7481;53.750;10.570;2022-09-21T08:22:54;2.10;;;1.75;;
14778;SDS011;7481;53.750;10.570;2022-09-21T08:25:41;2.63;;;1.70;;
14778;SDS011;7481;53.750;10.570;2022-09-21T08:28:29;2.08;;;1.60;;
14778;SDS011;7481;53.750;10.570;2022-09-21T08:31:20;3.10;;;1.60;;
14778;SDS011;7481;53.750;10.570;2022-09-21T08:34:09;2.67;;;1.60;;
14778;SDS011;7481;53.750;10.570;2022-09-21T08:36:56;2.67;;;1.50;;
14778;SDS011;7481;53.750;10.570;2022-09-21T08:39:43;1.42;;;1.33;;
14778;SDS011;7481;53.750;10.570;2022-09-21T08:45:38;2.88;;;1.50;;
14778;SDS011;7481;53.750;10.570;2022-09-21T08:48:28;2.33;;;1.60;;
14778;SDS011;7481;53.750;10.570;2022-09-21T08:51:24;1.40;;;1.30;;
14778;SDS011;7481;53.750;10.570;2022-09-21T08:54:16;1.52;;;1.30;;
14778;SDS011;7481;53.750;10.570;2022-09-21T08:57:11;1.98;;;1.52;;
14778;SDS011;7481;53.750;10.570;2022-09-21T09:00:00;1.58;;;1.45;;
14778;SDS011;7481;53.750;10.570;2022-09-21T09:03:33;1.33;;;1.23;;
14778;SDS011;7481;53.750;10.570;2022-09-21T09:18:19;1.63;;;1.10;;
14778;SDS011;7481;53.750;10.570;2022-09-21T09:21:24;1.50;;;1.10;;
14778;SDS011;7481;53.750;10.570;2022-09-21T09:27:26;1.30;;;1.20;;
14778;SDS011;7481;53.750;10.570;2022-09-21T09:33:14;1.50;;;1.20;;
14778;SDS011;7481;53.750;10.570;2022-09-21T09:36:08;1.20;;;1.10;;
14778;SDS011;7481;53.750;10.570;2022-09-21T09:39:08;1.20;;;1.10;;
14778;SDS011;7481;53.750;10.570;2022-09-21T09:48:34;1.05;;;1.00;;
14778;SDS011;7481;53.750;10.570;2022-09-21T09:51:37;1.10;;;1.10;;
14778;SDS011;7481;53.750;10.570;2022-09-21T09:54:26;1.30;;;1.20;;
14778;SDS011;7481;53.750;10.570;2022-09-21T09:57:15;1.40;;;1.15;;
14778;SDS011;7481;53.750;10.570;2022-09-21T10:00:13;1.30;;;1.20;;
14778;SDS011;7481;53.750;10.570;2022-09-21T10:03:05;2.13;;;1.40;;
14778;SDS011;7481;53.750;10.570;2022-09-21T10:06:02;1.63;;;1.25;;
14778;SDS011;7481;53.750;10.570;2022-09-21T10:08:49;3.33;;;1.20;;
14778;SDS011;7481;53.750;10.570;2022-09-21T10:11:38;1.67;;;1.10;;
14778;SDS011;7481;53.750;10.570;2022-09-21T10:14:26;1.42;;;1.10;;
14778;SDS011;7481;53.750;10.570;2022-09-21T10:17:18;1.27;;;1.17;;
14778;SDS011;7481;53.750;10.570;2022-09-21T10:20:05;1.30;;;1.20;;
14778;SDS011;7481;53.750;10.570;2022-09-21T10:23:00;1.80;;;1.30;;
14778;SDS011;7481;53.750;10.570;2022-09-21T10:25:54;1.00;;;1.00;;
14778;SDS011;7481;53.750;10.570;2022-09-21T10:28:54;1.10;;;1.00;;
14778;SDS011;7481;53.750;10.570;2022-09-21T10:32:01;1.35;;;1.25;;
14778;SDS011;7481;53.750;10.570;2022-09-21T10:38:09;0.98;;;0.98;;
14778;SDS011;7481;53.750;10.570;2022-09-21T10:41:07;1.05;;;1.00;;
14778;SDS011;7481;53.750;10.570;2022-09-21T10:43:57;2.95;;;1.10;;
14778;SDS011;7481;53.750;10.570;2022-09-21T10:46:44;2.35;;;1.08;;
14778;SDS011;7481;53.750;10.570;2022-09-21T10:49:33;1.40;;;1.17;;
14778;SDS011;7481;53.750;10.570;2022-09-21T10:52:21;1.33;;;1.10;;
14778;SDS011;7481;53.750;10.570;2022-09-21T10:55:17;2.20;;;1.48;;
14778;SDS011;7481;53.750;10.570;2022-09-21T10:58:08;2.22;;;1.08;;
14778;SDS011;7481;53.750;10.570;2022-09-21T11:01:08;1.02;;;1.00;;
14778;SDS011;7481;53.750;10.570;2022-09-21T11:07:16;1.40;;;1.30;;
14778;SDS011;7481;53.750;10.570;2022-09-21T11:13:35;1.40;;;1.30;;
14778;SDS011;7481;53.750;10.570;2022-09-21T11:23:09;1.27;;;1.17;;
14778;SDS011;7481;53.750;10.570;2022-09-21T11:29:09;1.40;;;1.30;;
14778;SDS011;7481;53.750;10.570;2022-09-21T11:35:38;2.17;;;1.50;;
14778;SDS011;7481;53.750;10.570;2022-09-21T11:38:38;2.00;;;1.20;;
14778;SDS011;7481;53.750;10.570;2022-09-21T11:41:48;1.45;;;1.00;;
14778;SDS011;7481;53.750;10.570;2022-09-21T11:44:53;1.20;;;1.10;;
14778;SDS011;7481;53.750;10.570;2022-09-21T11:57:32;0.80;;;0.80;;
14778;SDS011;7481;53.750;10.570;2022-09-21T12:00:21;1.67;;;1.15;;
14778;SDS011;7481;53.750;10.570;2022-09-21T12:09:36;1.85;;;1.05;;
14778;SDS011;7481;53.750;10.570;2022-09-21T12:12:35;2.15;;;1.20;;
14778;SDS011;7481;53.750;10.570;2022-09-21T12:15:32;1.67;;;1.10;;
14778;SDS011;7481;53.750;10.570;2022-09-21T12:21:40;1.20;;;1.10;;
14778;SDS011;7481;53.750;10.570;2022-09-21T12:24:39;1.67;;;1.20;;
14778;SDS011;7481;53.750;10.570;2022-09-21T12:27:45;1.20;;;1.10;;
14778;SDS011;7481;53.750;10.570;2022-09-21T12:30:38;1.20;;;0.98;;
14778;SDS011;7481;53.750;10.570;2022-09-21T12:33:36;1.42;;;1.20;;
14778;SDS011;7481;53.750;10.570;2022-09-21T12:36:56;1.80;;;1.20;;
14778;SDS011;7481;53.750;10.570;2022-09-21T12:39:58;1.83;;;1.00;;
14778;SDS011;7481;53.750;10.570;2022-09-21T12:43:04;3.13;;;1.20;;
14778;SDS011;7481;53.750;10.570;2022-09-21T12:49:10;1.40;;;1.30;;
14778;SDS011;7481;53.750;10.570;2022-09-21T12:52:04;1.48;;;1.02;;
14778;SDS011;7481;53.750;10.570;2022-09-21T12:58:19;1.42;;;1.33;;
14778;SDS011;7481;53.750;10.570;2022-09-21T13:01:35;1.55;;;1.05;;
14778;SDS011;7481;53.750;10.570;2022-09-21T13:04:52;1.30;;;1.00;;
14778;SDS011;7481;53.750;10.570;2022-09-21T13:11:05;1.55;;;1.30;;
14778;SDS011;7481;53.750;10.570;2022-09-21T13:13:57;1.17;;;1.08;;
14778;SDS011;7481;53.750;10.570;2022-09-21T13:16:52;1.10;;;1.00;;
14778;SDS011;7481;53.750;10.570;2022-09-21T13:19:42;1.02;;;1.00;;
14778;SDS011;7481;53.750;10.570;2022-09-21T13:22:40;1.00;;;1.00;;
14778;SDS011;7481;53.750;10.570;2022-09-21T13:25:28;0.98;;;0.93;;
14778;SDS011;7481;53.750;10.570;2022-09-21T13:28:18;1.10;;;1.02;;
14778;SDS011;7481;53.750;10.570;2022-09-21T13:34:21;0.95;;;0.95;;
14778;SDS011;7481;53.750;10.570;2022-09-21T13:42:55;1.10;;;0.90;;
14778;SDS011;7481;53.750;10.570;2022-09-21T13:46:01;1.05;;;0.93;;
14778;SDS011;7481;53.750;10.570;2022-09-21T13:48:51;2.13;;;0.95;;
14778;SDS011;7481;53.750;10.570;2022-09-21T13:54:59;1.13;;;1.02;;
14778;SDS011;7481;53.750;10.570;2022-09-21T13:57:48;0.75;;;0.75;;
14778;SDS011;7481;53.750;10.570;2022-09-21T14:00:57;1.13;;;0.95;;
14778;SDS011;7481;53.750;10.570;2022-09-21T14:03:49;1.55;;;1.20;;
14778;SDS011;7481;53.750;10.570;2022-09-21T14:06:42;1.40;;;1.10;;
14778;SDS011;7481;53.750;10.570;2022-09-21T14:09:38;1.48;;;1.23;;
14778;SDS011;7481;53.750;10.570;2022-09-21T14:12:41;1.10;;;1.00;;
14778;SDS011;7481;53.750;10.570;2022-09-21T14:15:33;1.15;;;1.05;;
14778;SDS011;7481;53.750;10.570;2022-09-21T14:18:35;1.67;;;1.17;;
14778;SDS011;7481;53.750;10.570;2022-09-21T14:21:23;0.80;;;0.80;;
14778;SDS011;7481;53.750;10.570;2022-09-21T14:24:17;1.30;;;1.20;;
14778;SDS011;7481;53.750;10.570;2022-09-21T14:33:17;1.63;;;1.10;;
14778;SDS011;7481;53.750;10.570;2022-09-21T14:36:16;2.10;;;1.00;;
14778;SDS011;7481;53.750;10.570;2022-09-21T14:42:26;2.13;;;0.95;;
14778;SDS011;7481;53.750;10.570;2022-09-21T14:45:15;1.63;;;1.10;;
14778;SDS011;7481;53.750;10.570;2022-09-21T14:50:56;1.63;;;1.30;;
14778;SDS011;7481;53.750;10.570;2022-09-21T14:54:10;1.35;;;1.25;;
14778;SDS011;7481;53.750;10.570;2022-09-21T15:00:23;1.95;;;1.05;;
14778;SDS011;7481;53.750;10.570;2022-09-21T15:07:18;1.13;;;1.05;;
14778;SDS011;7481;53.750;10.570;2022-09-21T15:10:58;1.33;;;1.00;;
14778;SDS011;7481;53.750;10.570;2022-09-21T15:14:06;1.70;;;0.90;;
14778;SDS011;7481;53.750;10.570;2022-09-21T15:16:56;1.23;;;1.00;;
14778;SDS011;7481;53.750;10.570;2022-09-21T15:19:43;1.20;;;0.82;;
14778;SDS011;7481;53.750;10.570;2022-09-21T15:22:30;1.10;;;1.10;;
14778;SDS011;7481;53.750;10.570;2022-09-21T15:25:17;1.00;;;0.90;;
14778;SDS011;7481;53.750;10.570;2022-09-21T15:28:04;1.15;;;1.00;;
14778;SDS011;7481;53.750;10.570;2022-09-21T15:30:55;3.08;;;1.20;;
14778;SDS011;7481;53.750;10.570;2022-09-21T15:33:43;1.17;;;1.08;;
14778;SDS011;7481;53.750;10.570;2022-09-21T15:36:35;1.38;;;1.05;;
14778;SDS011;7481;53.750;10.570;2022-09-21T15:39:28;1.00;;;0.90;;
14778;SDS011;7481;53.750;10.570;2022-09-21T15:42:19;0.80;;;0.80;;
14778;SDS011;7481;53.750;10.570;2022-09-21T15:45:15;0.82;;;0.82;;
14778;SDS011;7481;53.750;10.570;2022-09-21T15:48:05;0.73;;;0.73;;
14778;SDS011;7481;53.750;10.570;2022-09-21T15:51:02;1.27;;;1.10;;
14778;SDS011;7481;53.750;10.570;2022-09-21T15:54:06;1.33;;;1.10;;
14778;SDS011;7481;53.750;10.570;2022-09-21T15:57:00;1.27;;;1.00;;
14778;SDS011;7481;53.750;10.570;2022-09-21T15:59:54;1.52;;;1.10;;
14778;SDS011;7481;53.750;10.570;2022-09-21T16:02:47;1.58;;;1.15;;
14778;SDS011;7481;53.750;10.570;2022-09-21T16:05:53;2.50;;;1.05;;
14778;SDS011;7481;53.750;10.570;2022-09-21T16:08:41;2.00;;;1.00;;
14778;SDS011;7481;53.750;10.570;2022-09-21T16:14:15;1.23;;;1.13;;
14778;SDS011;7481;53.750;10.570;2022-09-21T16:17:25;0.80;;;0.80;;
14778;SDS011;7481;53.750;10.570;2022-09-21T16:20:17;1.50;;;0.90;;
14778;SDS011;7481;53.750;10.570;2022-09-21T16:23:12;0.82;;;0.82;;
14778;SDS011;7481;53.750;10.570;2022-09-21T16:26:02;1.13;;;0.95;;
14778;SDS011;7481;53.750;10.570;2022-09-21T16:28:54;1.05;;;0.95;;
14778;SDS011;7481;53.750;10.570;2022-09-21T16:31:43;0.80;;;0.80;;
14778;SDS011;7481;53.750;10.570;2022-09-21T16:34:35;1.02;;;0.77;;
14778;SDS011;7481;53.750;10.570;2022-09-21T16:40:14;1.73;;;0.93;;
14778;SDS011;7481;53.750;10.570;2022-09-21T16:43:01;1.60;;;0.70;;
14778;SDS011;7481;53.750;10.570;2022-09-21T16:45:50;2.75;;;1.00;;
14778;SDS011;7481;53.750;10.570;2022-09-21T16:48:37;1.10;;;1.00;;
14778;SDS011;7481;53.750;10.570;2022-09-21T16:51:26;1.83;;;1.05;;
14778;SDS011;7481;53.750;10.570;2022-09-21T16:54:17;2.00;;;0.80;;
14778;SDS011;7481;53.750;10.570;2022-09-21T16:57:05;2.25;;;0.90;;
14778;SDS011;7481;53.750;10.570;2022-09-21T16:59:52;1.88;;;0.77;;
14778;SDS011;7481;53.750;10.570;2022-09-21T17:02:40;1.10;;;1.00;;
14778;SDS011;7481;53.750;10.570;2022-09-21T17:05:28;1.10;;;0.90;;
14778;SDS011;7481;53.750;10.570;2022-09-21T17:08:15;0.85;;;0.85;;
14778;SDS011;7481;53.750;10.570;2022-09-21T17:11:02;0.82;;;0.80;;
14778;SDS011;7481;53.750;10.570;2022-09-21T17:13:49;0.88;;;0.80;;
14778;SDS011;7481;53.750;10.570;2022-09-21T17:16:37;0.82;;;0.82;;
14778;SDS011;7481;53.750;10.570;2022-09-21T17:19:24;1.95;;;1.10;;
14778;SDS011;7481;53.750;10.570;2022-09-21T17:22:11;1.27;;;1.17;;
14778;SDS011;7481;53.750;10.570;2022-09-21T17:25:04;2.13;;;1.10;;
14778;SDS011;7481;53.750;10.570;2022-09-21T17:27:51;2.67;;;1.10;;
14778;SDS011;7481;53.750;10.570;2022-09-21T17:30:38;2.23;;;1.50;;
14778;SDS011;7481;53.750;10.570;2022-09-21T17:33:27;1.63;;;1.20;;
14778;SDS011;7481;53.750;10.570;2022-09-21T17:36:15;2.55;;;1.70;;
14778;SDS011;7481;53.750;10.570;2022-09-21T17:39:03;5.80;;;1.90;;
14778;SDS011;7481;53.750;10.570;2022-09-21T17:41:55;6.45;;;3.75;;
14778;SDS011;7481;53.750;10.570;2022-09-21T17:48:02;6.63;;;3.93;;
14778;SDS011;7481;53.750;10.570;2022-09-21T17:50:50;4.67;;;2.90;;
14778;SDS011;7481;53.750;10.570;2022-09-21T17:53:37;5.07;;;2.60;;
14778;SDS011;7481;53.750;10.570;2022-09-21T17:56:40;2.60;;;2.13;;
14778;SDS011;7481;53.750;10.570;2022-09-21T17:59:36;3.03;;;2.20;;
14778;SDS011;7481;53.750;10.570;2022-09-21T18:02:24;3.10;;;2.23;;
14778;SDS011;7481;53.750;10.570;2022-09-21T18:05:16;2.77;;;1.70;;
14778;SDS011;7481;53.750;10.570;2022-09-21T18:08:09;2.40;;;2.00;;
14778;SDS011;7481;53.750;10.570;2022-09-21T18:17:38;2.47;;;1.60;;
14778;SDS011;7481;53.750;10.570;2022-09-21T18:23:44;3.23;;;2.00;;
14778;SDS011;7481;53.750;10.570;2022-09-21T18:26:39;2.43;;;2.00;;
14778;SDS011;7481;53.750;10.570;2022-09-21T18:29:30;3.60;;;2.30;;
14778;SDS011;7481;53.750;10.570;2022-09-21T18:39:00;4.33;;;2.73;;
14778;SDS011;7481;53.750;10.570;2022-09-21T18:45:37;5.30;;;2.83;;
14778;SDS011;7481;53.750;10.570;2022-09-21T18:54:38;5.83;;;2.60;;
14778;SDS011;7481;53.750;10.570;2022-09-21T18:57:25;3.73;;;2.73;;
14778;SDS011;7481;53.750;10.570;2022-09-21T19:00:17;4.80;;;2.30;;
14778;SDS011;7481;53.750;10.570;2022-09-21T19:03:06;4.07;;;2.90;;
14778;SDS011;7481;53.750;10.570;2022-09-21T19:09:19;7.43;;;5.63;;
14778;SDS011;7481;53.750;10.570;2022-09-21T19:12:18;9.33;;;6.50;;
14778;SDS011;7481;53.750;10.570;2022-09-21T19:18:53;7.70;;;4.93;;
14778;SDS011;7481;53.750;10.570;2022-09-21T19:22:00;6.43;;;4.63;;
14778;SDS011;7481;53.750;10.570;2022-09-21T19:25:21;5.53;;;3.83;;
14778;SDS011;7481;53.750;10.570;2022-09-21T19:31:50;5.27;;;3.80;;
14778;SDS011;7481;53.750;10.570;2022-09-21T19:34:37;4.83;;;3.90;;
14778;SDS011;7481;53.750;10.570;2022-09-21T19:37:24;5.00;;;4.27;;
14778;SDS011;7481;53.750;10.570;2022-09-21T19:40:11;4.63;;;3.80;;
14778;SDS011;7481;53.750;10.570;2022-09-21T19:43:05;5.03;;;3.53;;
14778;SDS011;7481;53.750;10.570;2022-09-21T19:46:10;5.40;;;2.97;;
14778;SDS011;7481;53.750;10.570;2022-09-21T19:49:20;4.20;;;3.20;;
14778;SDS011;7481;53.750;10.570;2022-09-21T19:52:15;3.63;;;2.30;;
14778;SDS011;7481;53.750;10.570;2022-09-21T19:55:05;2.70;;;2.30;;
14778;SDS011;7481;53.750;10.570;2022-09-21T19:58:21;4.17;;;2.13;;
14778;SDS011;7481;53.750;10.570;2022-09-21T20:01:27;3.50;;;2.03;;
14778;SDS011;7481;53.750;10.570;2022-09-21T20:04:14;2.77;;;1.93;;
14778;SDS011;7481;53.750;10.570;2022-09-21T20:07:04;3.63;;;1.80;;
14778;SDS011;7481;53.750;10.570;2022-09-21T20:10:06;3.70;;;2.17;;
14778;SDS011;7481;53.750;10.570;2022-09-21T20:16:24;2.83;;;1.50;;
14778;SDS011;7481;53.750;10.570;2022-09-21T20:19:51;1.80;;;1.27;;
14778;SDS011;7481;53.750;10.570;2022-09-21T20:22:45;2.07;;;1.50;;
14778;SDS011;7481;53.750;10.570;2022-09-21T20:25:48;1.60;;;1.50;;
14778;SDS011;7481;53.750;10.570;2022-09-21T20:28:39;2.83;;;1.50;;